Latest Coastal Weather Observations for Cape Borda

IDS60701

Issued at 9:31 pm CST Monday 27 April 2015 (issued every 10 minutes, with the page automatically refreshed every 10 minutes)

About coastal observations | Map of coastal stations | Coastal observations for SA | Marine services | Other Formats
Station Details ID: 022823 Name: CAPE BORDA Lat: -35.75 Lon: 136.60 Height: 158.0 m
Data from the previous 72 hours. | See also: Recent months at Cape Borda
Date/Time
CST
Temp

°C
Wind Pressure Rain
since 9am
mm
Weather Cloud Vis
km
Sea
Height
m
Swell
Dir
 
Speed
knots
Gust
knots
hPa Trend Height
m
Period
s
Dir
27/09:30pm 10.6 SSE 5 7 1029.5 - 2.8 - - - - - - -
27/09:00pm 10.5 SSE 8 9 1029.3 - 2.8 - - - - - - -
27/08:30pm 9.9 SSE 8 9 1029.2 - 2.8 - - - - - - -
27/08:00pm 10.1 SSE 9 11 1029.2 - 2.8 - - - - - - -
27/07:30pm 10.7 SSE 8 11 1029.0 - 2.8 - - - - - - -
27/07:00pm 11.3 S 8 9 1028.9 - 2.8 - - - - - - -
27/06:30pm 11.5 SSE 8 9 1028.6 - 2.8 - - - - - - -
27/06:00pm 11.1 S 8 10 1028.3 - 2.8 - - - - - - -
27/05:30pm 11.8 S 8 11 1028.2 - 2.8 - - - - - - -
27/05:00pm 12.8 SSE 7 11 1028.1 - 2.8 - - - - - - -
27/04:30pm 13.4 S 10 15 1028.0 - 2.8 - - - - - - -
27/04:00pm 13.1 S 9 14 1028.0 - 2.8 - - - - - - -
27/03:30pm 12.3 S 9 15 1027.8 - 2.8 - - - - - - -
27/03:00pm 12.2 S 13 20 1027.8 R 2.6 Drizzle Mostly cloudy 18 1 5.0 7 SW
27/02:30pm 13.9 S 12 16 1027.7 - 2.2 - - - - - - -
27/02:00pm 13.8 S 13 18 1027.5 - 2.2 - - - - - - -
27/01:30pm 12.9 SSW 12 16 1027.6 - 2.2 - - - - - - -
27/01:00pm 14.3 S 13 16 1027.7 - 1.4 - - - - - - -
27/12:30pm 14.4 SSW 12 16 1028.0 - 1.4 - - - - - - -
27/12:00pm 14.1 S 13 17 1028.3 - 1.4 - - - - - - -
27/11:30am 13.9 SSW 11 18 1028.5 - 1.4 - - - - - - -
27/11:00am 13.4 SSW 10 16 1028.7 - 1.4 - - - - - - -
27/10:30am 12.7 S 10 14 1028.7 - 1.4 - - - - - - -
27/10:00am 12.4 S 10 14 1028.7 - 1.2 - - - - - - -
27/09:30am 12.0 S 8 11 1028.7 - 0.6 - - - - - - -
27/09:00am 12.0 S 9 12 1028.4 R 1.2 Drizzle Cloudy 6 <0.5 4.0 8 SW
27/08:30am 12.2 SSW 10 14 1028.2 - 1.2 - - - - - - -
27/08:00am 11.4 SW 12 17 1028.0 - 1.2 - - - - - - -
27/07:30am 11.0 SW 9 14 1027.8 - 1.0 - - - - - - -
27/07:00am 11.9 SW 10 17 1027.5 - 0.0 - - - - - - -
27/06:30am 12.4 SW 8 11 1027.3 - 0.0 - - - - - - -
27/06:00am 12.2 SW 7 11 1027.2 - 0.0 - - - - - - -
27/05:30am 12.5 SW 9 13 1027.1 - 0.0 - - - - - - -
27/05:00am 12.4 WSW 8 11 1026.9 - 0.0 - - - - - - -
27/04:30am 12.2 SW 7 11 1027.0 - 0.0 - - - - - - -
27/04:00am 11.8 SSW 6 8 1026.9 - 0.0 - - - - - - -
27/03:30am 11.5 S 8 12 1026.9 - 0.0 - - - - - - -
27/03:00am 10.6 S 7 8 1026.8 - 0.0 - - - - - - -
27/02:30am 10.6 S 7 8 1027.0 - 0.0 - - - - - - -
27/02:00am 11.6 S 9 13 1027.1 - 0.0 - - - - - - -
27/01:30am 11.6 SSW 9 13 1027.1 - 0.0 - - - - - - -
27/01:00am 11.1 SSE 7 8 1027.0 - 0.0 - - - - - - -
27/12:30am 11.0 SE 7 10 1027.2 - 0.0 - - - - - - -
27/12:00am 11.8 S 6 9 1027.2 - 0.0 - - - - - - -
 
Date/Time
CST
Temp

°C
Wind Pressure Rain
since 9am
mm
Weather Cloud Vis
km
Sea
Height
m
Swell
Dir
 
Speed
knots
Gust
knots
hPa Trend Height
m
Period
s
Dir
26/11:30pm 11.3 S 6 7 1027.2 - 0.0 - - - - - - -
26/11:00pm 11.5 S 5 7 1027.5 - 0.0 - - - - - - -
26/10:30pm 11.7 S 7 9 1027.6 - 0.0 - - - - - - -
26/10:00pm 11.7 S 7 9 1027.6 - 0.0 - - - - - - -
26/09:30pm 11.8 S 9 11 1027.3 - 0.0 - - - - - - -
26/09:00pm 11.8 S 7 10 1027.3 - 0.0 - - - - - - -
26/08:30pm 12.1 SSW 7 9 1027.2 - 0.0 - - - - - - -
26/08:00pm 11.7 S 6 8 1027.0 - 0.0 - - - - - - -
26/07:30pm 11.7 S 7 11 1026.9 - 0.0 - - - - - - -
26/07:00pm 11.3 S 8 10 1026.8 - 0.0 - - - - - - -
26/06:30pm 11.9 S 10 13 1026.6 - 0.0 - - - - - - -
26/06:00pm 12.7 SSW 10 15 1026.1 - 0.0 - - - - - - -
26/05:30pm 12.9 SSW 9 13 1026.0 - 0.0 - - - - - - -
26/05:00pm 13.3 SSW 9 13 1025.7 - 0.0 - - - - - - -
26/04:30pm 13.5 S 10 14 1025.6 - 0.0 - - - - - - -
26/04:00pm 13.3 SSW 9 12 1025.6 - 0.0 - - - - - - -
26/03:30pm 13.4 SSW 12 16 1025.5 - 0.0 - - - - - - -
26/03:00pm 13.5 SSW 9 12 1025.2 R 0.0 Fine Cloudy 22 <0.5 5.9 8 SW
26/02:30pm 14.0 S 9 13 1025.2 - 0.0 - - - - - - -
26/02:00pm 13.6 SSW 12 17 1025.2 - 0.0 - - - - - - -
26/01:30pm 13.6 SSW 11 15 1025.2 - 0.0 - - - - - - -
26/01:00pm 13.5 S 9 13 1025.4 - 0.0 - - - - - - -
26/12:30pm 13.7 SW 9 13 1025.7 - 0.0 - - - - - - -
26/12:00pm 13.4 SSW 12 16 1025.7 - 0.0 - - - - - - -
26/11:30am 13.8 SSW 8 11 1026.0 - 0.0 - - - - - - -
26/11:00am 13.3 S 11 16 1026.0 - 0.0 - - - - - - -
26/10:30am 13.5 S 10 17 1025.9 - 0.0 - - - - - - -
26/10:00am 12.9 S 9 14 1026.0 - 0.0 - - - - - - -
26/09:30am 12.5 S 9 12 1026.0 - 0.0 - - - - - - -
26/09:00am 12.2 S 8 13 1025.7 R 1.6 Distant precip. Cloudy 25 <0.5 6.8 8 SW
26/08:30am 12.2 SSW 8 11 1025.6 - 1.6 - - - - - - -
26/08:00am 11.8 SSW 10 15 1025.1 - 1.6 - - - - - - -
26/07:30am 11.1 S 9 11 1024.6 - 1.6 - - - - - - -
26/07:00am 10.8 S 9 12 1024.2 - 1.6 - - - - - - -
26/06:30am 10.4 S 9 13 1023.9 - 1.6 - - - - - - -
26/06:00am 10.3 S 9 14 1023.7 - 1.6 - - - - - - -
26/05:30am 10.6 S 13 18 1023.5 - 1.6 - - - - - - -
26/05:00am 10.6 S 10 13 1023.3 - 1.6 - - - - - - -
26/04:30am 10.7 SSW 6 8 1023.2 - 1.6 - - - - - - -
26/04:00am 10.9 SW 8 11 1022.9 - 1.6 - - - - - - -
26/03:30am 10.3 S 8 11 1022.9 - 1.6 - - - - - - -
26/03:00am 10.3 S 11 15 1022.6 - 1.6 - - - - - - -
26/02:30am 10.4 S 11 14 1022.7 - 1.6 - - - - - - -
26/02:00am 10.1 S 10 13 1022.7 - 1.4 - - - - - - -
26/01:30am 9.9 S 9 13 1022.7 - 1.4 - - - - - - -
26/01:00am 10.1 S 9 11 1022.6 - 1.4 - - - - - - -
26/12:30am 9.9 S 8 10 1022.8 - 1.4 - - - - - - -
26/12:00am 10.4 S 9 12 1022.5 - 1.4 - - - - - - -
 
Date/Time
CST
Temp

°C
Wind Pressure Rain
since 9am
mm
Weather Cloud Vis
km
Sea
Height
m
Swell
Dir
 
Speed
knots
Gust
knots
hPa Trend Height
m
Period
s
Dir
25/11:30pm 10.6 SSW 10 11 1022.7 - 1.4 - - - - - - -
25/11:00pm 9.7 SSE 9 11 1022.5 - 1.4 - - - - - - -
25/10:30pm 10.0 S 11 14 1022.5 - 1.4 - - - - - - -
25/10:00pm 10.0 S 10 15 1022.4 - 1.2 - - - - - - -
25/09:30pm 9.6 S 9 12 1022.2 - 1.2 - - - - - - -
25/09:00pm 9.6 S 8 10 1021.9 - 1.0 - - - - - - -
25/08:30pm 9.6 S 9 11 1021.6 - 1.0 - - - - - - -
25/08:00pm 9.8 S 9 12 1021.5 - 1.0 - - - - - - -
25/07:30pm 10.8 S 10 13 1021.3 - 1.0 - - - - - - -
25/07:00pm 11.9 S 10 14 1021.1 - 0.8 - - - - - - -
25/06:30pm 12.0 S 8 11 1020.6 - 0.8 - - - - - - -
25/06:00pm 12.3 S 13 19 1020.0 - 0.8 - - - - - - -
25/05:30pm 12.3 S 13 19 1019.7 - 0.8 - - - - - - -
25/05:00pm 13.1 S 13 19 1019.2 - 0.8 - - - - - - -
25/04:30pm 13.4 S 18 25 1018.8 - 0.8 - - - - - - -
25/04:00pm 13.7 S 17 24 1018.5 - 0.8 - - - - - - -
25/03:41pm 13.8 S 16 26 1018.3 - 0.8 - - - - - - -
25/03:30pm 13.1 S 18 25 1018.2 - 0.8 - - - - - - -
25/03:05pm 13.9 S 18 28 1017.9 - 0.8 - - - - - - -
25/03:00pm 13.7 S 18 25 1017.8 R 0.8 Distant precip. Mostly cloudy 15 2 6.3 8 SW
25/02:30pm 14.1 S 19 26 1017.5 - 0.8 - - - - - - -
25/02:00pm 13.7 S 19 28 1017.2 - 0.8 - - - - - - -
25/01:33pm 14.1 S 17 27 1017.1 - 0.8 - - - - - - -
25/01:30pm 14.1 S 18 27 1017.1 - 0.8 - - - - - - -
25/01:03pm 14.1 S 17 27 1017.1 - 0.8 - - - - - - -
25/01:00pm 13.9 S 18 27 1017.1 - 0.8 - - - - - - -
25/12:42pm 14.3 S 19 29 1016.8 - 0.8 - - - - - - -
25/12:30pm 14.6 S 20 27 1016.6 - 0.8 - - - - - - -
25/12:00pm 13.7 S 19 26 1016.4 - 0.8 - - - - - - -
25/11:30am 14.1 S 18 25 1016.4 - 0.4 - - - - - - -
25/11:00am 13.4 S 18 26 1016.2 - 0.4 - - - - - - -
25/10:30am 14.4 S 19 27 1015.9 - 0.0 - - - - - - -
25/10:22am 14.4 S 16 26 1015.8 - 0.0 - - - - - - -
25/10:00am 14.7 S 16 25 1015.5 - 0.0 - - - - - - -
25/09:55am 14.6 S 15 25 1015.4 - 0.0 - - - - - - -
25/09:30am 12.7 S 13 18 1015.4 - 0.0 - - - - - - -
25/09:00am 12.9 SSW 12 24 1014.6 R 8.2 Distant precip. Mostly cloudy 15 2 8.7 9 SW
25/08:30am 11.6 S 10 16 1014.5 - 8.2 - - - - - - -
25/08:00am 11.9 S 10 13 1013.9 - 8.2 - - - - - - -
25/07:30am 10.7 S 11 14 1013.3 - 8.2 - - - - - - -
25/07:00am 10.6 S 9 13 1012.6 - 8.2 - - - - - - -
25/06:30am 10.6 S 8 11 1012.0 - 8.2 - - - - - - -
25/06:00am 10.8 S 12 19 1011.2 - 8.2 - - - - - - -
25/05:30am 10.6 S 10 13 1010.8 - 8.0 - - - - - - -
25/05:00am 10.0 S 11 15 1010.2 - 8.0 - - - - - - -
25/04:30am 10.2 S 12 17 1009.5 - 8.0 - - - - - - -
25/04:00am 10.0 SSE 13 17 1008.9 - 8.0 - - - - - - -
25/03:30am 10.1 S 14 19 1008.4 - 8.0 - - - - - - -
25/03:00am 10.9 S 14 19 1007.8 - 8.0 - - - - - - -
25/02:30am 11.0 S 17 23 1007.5 - 8.0 - - - - - - -
25/02:00am 10.9 S 17 23 1006.9 - 8.0 - - - - - - -
25/01:30am 10.7 S 17 26 1006.5 - 8.0 - - - - - - -
25/01:00am 10.3 S 17 25 1005.7 - 8.0 - - - - - - -
25/12:31am 9.8 S 18 28 1005.2 - 8.0 - - - - - - -
25/12:30am 9.8 S 19 28 1005.2 - 8.0 - - - - - - -
25/12:00am 10.1 S 18 26 1004.3 - 8.0 - - - - - - -
 
Date/Time
CST
Temp

°C
Wind Pressure Rain
since 9am
mm
Weather Cloud Vis
km
Sea
Height
m
Swell
Dir
 
Speed
knots
Gust
knots
hPa Trend Height
m
Period
s
Dir
24/11:30pm 9.9 S 19 29 1003.6 - 8.0 - - - - - - -
24/11:27pm 10.0 S 18 29 1003.6 - 8.0 - - - - - - -
24/11:00pm 10.2 S 19 26 1003.2 - 7.8 - - - - - - -
24/10:30pm 10.3 SSW 18 26 1002.8 - 7.8 - - - - - - -
24/10:15pm 10.3 S 19 29 1002.3 - 7.8 - - - - - - -
24/10:00pm 10.4 SSW 20 28 1002.0 - 7.8 - - - - - - -
24/09:42pm 10.7 SSW 22 32 1001.7 - 7.8 - - - - - - -

Other Formats:

Comma delimited format used in spreadsheet applications
http://www.bom.gov.au/fwo/IDS60701/IDS60701.95805.axf

JavaScript Object Notation format (JSON) in row-major order
http://www.bom.gov.au/fwo/IDS60701/IDS60701.95805.json